sensor_id;sensor_type;location;lat;lon;timestamp;P1;durP1;ratioP1;P2;durP2;ratioP2
43124;SDS011;49182;50.788;7.318;2023-03-01T00:00:15;16.67;;;7.93;;
43124;SDS011;49182;50.788;7.318;2023-03-01T00:02:42;18.50;;;8.27;;
43124;SDS011;49182;50.788;7.318;2023-03-01T00:05:08;15.80;;;7.88;;
43124;SDS011;49182;50.788;7.318;2023-03-01T00:07:35;17.58;;;8.05;;
43124;SDS011;49182;50.788;7.318;2023-03-01T00:10:03;16.15;;;8.10;;
43124;SDS011;49182;50.788;7.318;2023-03-01T00:12:31;17.63;;;8.27;;
43124;SDS011;49182;50.788;7.318;2023-03-01T00:14:57;17.63;;;8.35;;
43124;SDS011;49182;50.788;7.318;2023-03-01T00:17:24;17.35;;;8.25;;
43124;SDS011;49182;50.788;7.318;2023-03-01T00:19:51;15.30;;;7.82;;
43124;SDS011;49182;50.788;7.318;2023-03-01T00:22:17;13.10;;;7.35;;
43124;SDS011;49182;50.788;7.318;2023-03-01T00:24:44;16.05;;;7.28;;
43124;SDS011;49182;50.788;7.318;2023-03-01T00:27:12;22.48;;;8.20;;
43124;SDS011;49182;50.788;7.318;2023-03-01T00:29:38;14.15;;;6.50;;
43124;SDS011;49182;50.788;7.318;2023-03-01T00:32:05;18.83;;;7.80;;
43124;SDS011;49182;50.788;7.318;2023-03-01T00:34:32;15.05;;;7.40;;
43124;SDS011;49182;50.788;7.318;2023-03-01T00:36:58;15.43;;;7.45;;
43124;SDS011;49182;50.788;7.318;2023-03-01T00:39:25;15.23;;;7.57;;
43124;SDS011;49182;50.788;7.318;2023-03-01T00:41:52;20.13;;;8.90;;
43124;SDS011;49182;50.788;7.318;2023-03-01T00:44:19;16.52;;;7.40;;
43124;SDS011;49182;50.788;7.318;2023-03-01T00:46:46;13.93;;;7.03;;
43124;SDS011;49182;50.788;7.318;2023-03-01T00:49:13;16.55;;;8.40;;
43124;SDS011;49182;50.788;7.318;2023-03-01T00:51:40;15.88;;;8.43;;
43124;SDS011;49182;50.788;7.318;2023-03-01T00:54:07;17.65;;;8.10;;
43124;SDS011;49182;50.788;7.318;2023-03-01T00:56:35;18.85;;;8.20;;
43124;SDS011;49182;50.788;7.318;2023-03-01T00:59:02;15.98;;;7.55;;
43124;SDS011;49182;50.788;7.318;2023-03-01T01:01:30;15.93;;;7.72;;
43124;SDS011;49182;50.788;7.318;2023-03-01T01:03:58;17.80;;;7.93;;
43124;SDS011;49182;50.788;7.318;2023-03-01T01:06:27;14.15;;;7.35;;
43124;SDS011;49182;50.788;7.318;2023-03-01T01:08:57;20.63;;;8.43;;
43124;SDS011;49182;50.788;7.318;2023-03-01T01:11:25;16.00;;;7.28;;
43124;SDS011;49182;50.788;7.318;2023-03-01T01:13:53;14.65;;;7.30;;
43124;SDS011;49182;50.788;7.318;2023-03-01T01:16:21;16.60;;;8.35;;
43124;SDS011;49182;50.788;7.318;2023-03-01T01:18:50;22.08;;;8.20;;
43124;SDS011;49182;50.788;7.318;2023-03-01T01:21:18;19.25;;;7.65;;
43124;SDS011;49182;50.788;7.318;2023-03-01T01:23:47;14.30;;;7.80;;
43124;SDS011;49182;50.788;7.318;2023-03-01T01:26:15;16.02;;;8.40;;
43124;SDS011;49182;50.788;7.318;2023-03-01T01:28:43;20.92;;;8.60;;
43124;SDS011;49182;50.788;7.318;2023-03-01T01:31:09;12.68;;;7.15;;
43124;SDS011;49182;50.788;7.318;2023-03-01T01:33:36;19.85;;;9.30;;
43124;SDS011;49182;50.788;7.318;2023-03-01T01:36:05;20.73;;;8.65;;
43124;SDS011;49182;50.788;7.318;2023-03-01T01:38:33;22.10;;;9.77;;
43124;SDS011;49182;50.788;7.318;2023-03-01T01:41:00;26.60;;;11.65;;
43124;SDS011;49182;50.788;7.318;2023-03-01T01:43:28;34.53;;;14.90;;
43124;SDS011;49182;50.788;7.318;2023-03-01T01:45:56;33.47;;;13.73;;
43124;SDS011;49182;50.788;7.318;2023-03-01T01:48:27;27.13;;;11.48;;
43124;SDS011;49182;50.788;7.318;2023-03-01T01:51:00;25.67;;;11.52;;
43124;SDS011;49182;50.788;7.318;2023-03-01T01:53:28;16.92;;;7.40;;
43124;SDS011;49182;50.788;7.318;2023-03-01T01:55:55;17.15;;;8.13;;
43124;SDS011;49182;50.788;7.318;2023-03-01T01:58:27;20.75;;;8.27;;
43124;SDS011;49182;50.788;7.318;2023-03-01T02:00:56;16.73;;;8.00;;
43124;SDS011;49182;50.788;7.318;2023-03-01T02:03:24;17.05;;;7.50;;
43124;SDS011;49182;50.788;7.318;2023-03-01T02:05:53;16.90;;;8.52;;
43124;SDS011;49182;50.788;7.318;2023-03-01T02:08:25;14.50;;;7.00;;
43124;SDS011;49182;50.788;7.318;2023-03-01T02:10:56;15.65;;;7.40;;
43124;SDS011;49182;50.788;7.318;2023-03-01T02:13:24;16.80;;;8.25;;
43124;SDS011;49182;50.788;7.318;2023-03-01T02:15:51;15.27;;;7.75;;
43124;SDS011;49182;50.788;7.318;2023-03-01T02:18:20;17.42;;;8.57;;
43124;SDS011;49182;50.788;7.318;2023-03-01T02:20:52;18.55;;;8.73;;
43124;SDS011;49182;50.788;7.318;2023-03-01T02:23:29;20.23;;;8.95;;
43124;SDS011;49182;50.788;7.318;2023-03-01T02:25:58;20.88;;;8.50;;
43124;SDS011;49182;50.788;7.318;2023-03-01T02:28:31;17.67;;;8.30;;
43124;SDS011;49182;50.788;7.318;2023-03-01T02:30:59;14.88;;;7.07;;
43124;SDS011;49182;50.788;7.318;2023-03-01T02:33:28;16.70;;;7.68;;
43124;SDS011;49182;50.788;7.318;2023-03-01T02:35:56;16.00;;;7.50;;
43124;SDS011;49182;50.788;7.318;2023-03-01T02:38:24;17.50;;;8.15;;
43124;SDS011;49182;50.788;7.318;2023-03-01T02:40:51;28.05;;;8.07;;
43124;SDS011;49182;50.788;7.318;2023-03-01T02:43:19;22.85;;;11.52;;
43124;SDS011;49182;50.788;7.318;2023-03-01T02:45:50;18.25;;;8.15;;
43124;SDS011;49182;50.788;7.318;2023-03-01T02:48:17;16.40;;;8.07;;
43124;SDS011;49182;50.788;7.318;2023-03-01T02:50:47;16.63;;;7.57;;
43124;SDS011;49182;50.788;7.318;2023-03-01T02:53:22;17.52;;;8.43;;
43124;SDS011;49182;50.788;7.318;2023-03-01T02:55:58;18.15;;;9.02;;
43124;SDS011;49182;50.788;7.318;2023-03-01T02:58:25;17.77;;;8.10;;
43124;SDS011;49182;50.788;7.318;2023-03-01T03:00:54;17.58;;;8.20;;
43124;SDS011;49182;50.788;7.318;2023-03-01T03:03:21;17.92;;;9.18;;
43124;SDS011;49182;50.788;7.318;2023-03-01T03:05:48;18.17;;;8.80;;
43124;SDS011;49182;50.788;7.318;2023-03-01T03:08:15;20.33;;;8.77;;
43124;SDS011;49182;50.788;7.318;2023-03-01T03:10:42;20.92;;;8.23;;
43124;SDS011;49182;50.788;7.318;2023-03-01T03:13:09;17.08;;;7.63;;
43124;SDS011;49182;50.788;7.318;2023-03-01T03:15:37;14.45;;;7.03;;
43124;SDS011;49182;50.788;7.318;2023-03-01T03:18:07;16.58;;;8.20;;
43124;SDS011;49182;50.788;7.318;2023-03-01T03:20:36;15.35;;;7.57;;
43124;SDS011;49182;50.788;7.318;2023-03-01T03:23:03;17.00;;;7.80;;
43124;SDS011;49182;50.788;7.318;2023-03-01T03:25:29;17.05;;;8.07;;
43124;SDS011;49182;50.788;7.318;2023-03-01T03:27:56;17.65;;;8.18;;
43124;SDS011;49182;50.788;7.318;2023-03-01T03:30:25;18.63;;;8.27;;
43124;SDS011;49182;50.788;7.318;2023-03-01T03:32:53;15.20;;;7.57;;
43124;SDS011;49182;50.788;7.318;2023-03-01T03:35:22;15.73;;;7.57;;
43124;SDS011;49182;50.788;7.318;2023-03-01T03:37:50;18.80;;;7.70;;
43124;SDS011;49182;50.788;7.318;2023-03-01T03:40:17;14.88;;;7.10;;
43124;SDS011;49182;50.788;7.318;2023-03-01T03:42:44;18.50;;;8.70;;
43124;SDS011;49182;50.788;7.318;2023-03-01T03:45:10;17.23;;;8.15;;
43124;SDS011;49182;50.788;7.318;2023-03-01T03:47:37;18.30;;;7.63;;
43124;SDS011;49182;50.788;7.318;2023-03-01T03:50:04;18.00;;;9.68;;
43124;SDS011;49182;50.788;7.318;2023-03-01T03:52:33;24.35;;;8.82;;
43124;SDS011;49182;50.788;7.318;2023-03-01T03:54:59;16.48;;;7.65;;
43124;SDS011;49182;50.788;7.318;2023-03-01T03:57:26;15.02;;;7.80;;
43124;SDS011;49182;50.788;7.318;2023-03-01T03:59:53;16.20;;;8.32;;
43124;SDS011;49182;50.788;7.318;2023-03-01T04:02:19;17.60;;;7.90;;
43124;SDS011;49182;50.788;7.318;2023-03-01T04:04:46;16.48;;;8.07;;
43124;SDS011;49182;50.788;7.318;2023-03-01T04:07:12;17.50;;;8.55;;
43124;SDS011;49182;50.788;7.318;2023-03-01T04:09:40;17.55;;;8.43;;
43124;SDS011;49182;50.788;7.318;2023-03-01T04:12:07;19.20;;;8.20;;
43124;SDS011;49182;50.788;7.318;2023-03-01T04:14:33;19.85;;;9.27;;
43124;SDS011;49182;50.788;7.318;2023-03-01T04:17:00;16.55;;;7.88;;
43124;SDS011;49182;50.788;7.318;2023-03-01T04:19:27;17.77;;;8.60;;
43124;SDS011;49182;50.788;7.318;2023-03-01T04:21:53;17.40;;;7.38;;
43124;SDS011;49182;50.788;7.318;2023-03-01T04:24:20;20.67;;;8.05;;
43124;SDS011;49182;50.788;7.318;2023-03-01T04:26:48;16.90;;;7.75;;
43124;SDS011;49182;50.788;7.318;2023-03-01T04:29:14;15.95;;;8.02;;
43124;SDS011;49182;50.788;7.318;2023-03-01T04:31:41;18.23;;;8.40;;
43124;SDS011;49182;50.788;7.318;2023-03-01T04:34:07;19.27;;;8.10;;
43124;SDS011;49182;50.788;7.318;2023-03-01T04:36:34;17.85;;;8.00;;
43124;SDS011;49182;50.788;7.318;2023-03-01T04:39:01;15.73;;;7.22;;
43124;SDS011;49182;50.788;7.318;2023-03-01T04:41:28;15.50;;;7.78;;
43124;SDS011;49182;50.788;7.318;2023-03-01T04:43:56;17.02;;;7.15;;
43124;SDS011;49182;50.788;7.318;2023-03-01T04:46:23;17.27;;;8.25;;
43124;SDS011;49182;50.788;7.318;2023-03-01T04:48:49;16.02;;;7.93;;
43124;SDS011;49182;50.788;7.318;2023-03-01T04:51:16;17.17;;;7.45;;
43124;SDS011;49182;50.788;7.318;2023-03-01T04:53:43;16.40;;;7.88;;
43124;SDS011;49182;50.788;7.318;2023-03-01T04:56:10;16.80;;;8.10;;
43124;SDS011;49182;50.788;7.318;2023-03-01T04:58:36;16.75;;;7.47;;
43124;SDS011;49182;50.788;7.318;2023-03-01T05:01:09;17.73;;;8.23;;
43124;SDS011;49182;50.788;7.318;2023-03-01T05:03:36;16.05;;;8.00;;
43124;SDS011;49182;50.788;7.318;2023-03-01T05:06:03;18.05;;;8.32;;
43124;SDS011;49182;50.788;7.318;2023-03-01T05:08:30;16.35;;;6.88;;
43124;SDS011;49182;50.788;7.318;2023-03-01T05:10:56;19.27;;;7.90;;
43124;SDS011;49182;50.788;7.318;2023-03-01T05:13:23;17.02;;;8.13;;
43124;SDS011;49182;50.788;7.318;2023-03-01T05:15:53;19.30;;;8.57;;
43124;SDS011;49182;50.788;7.318;2023-03-01T05:18:22;16.08;;;7.10;;
43124;SDS011;49182;50.788;7.318;2023-03-01T05:20:49;22.33;;;8.25;;
43124;SDS011;49182;50.788;7.318;2023-03-01T05:23:16;17.35;;;8.73;;
43124;SDS011;49182;50.788;7.318;2023-03-01T05:25:42;16.20;;;8.30;;
43124;SDS011;49182;50.788;7.318;2023-03-01T05:28:10;17.50;;;8.07;;
43124;SDS011;49182;50.788;7.318;2023-03-01T05:30:40;17.48;;;8.93;;
43124;SDS011;49182;50.788;7.318;2023-03-01T05:33:10;18.85;;;8.85;;
43124;SDS011;49182;50.788;7.318;2023-03-01T05:35:38;15.07;;;8.13;;
43124;SDS011;49182;50.788;7.318;2023-03-01T05:38:05;19.48;;;8.65;;
43124;SDS011;49182;50.788;7.318;2023-03-01T05:40:33;19.42;;;8.77;;
43124;SDS011;49182;50.788;7.318;2023-03-01T05:43:00;18.38;;;8.68;;
43124;SDS011;49182;50.788;7.318;2023-03-01T05:45:27;16.63;;;8.00;;
43124;SDS011;49182;50.788;7.318;2023-03-01T05:47:54;18.83;;;8.80;;
43124;SDS011;49182;50.788;7.318;2023-03-01T05:50:21;18.33;;;8.57;;
43124;SDS011;49182;50.788;7.318;2023-03-01T05:52:52;21.73;;;9.00;;
43124;SDS011;49182;50.788;7.318;2023-03-01T05:55:24;18.38;;;8.55;;
43124;SDS011;49182;50.788;7.318;2023-03-01T05:57:54;20.77;;;9.43;;
43124;SDS011;49182;50.788;7.318;2023-03-01T06:00:21;16.90;;;8.07;;
43124;SDS011;49182;50.788;7.318;2023-03-01T06:02:48;19.13;;;8.25;;
43124;SDS011;49182;50.788;7.318;2023-03-01T06:05:15;20.05;;;8.43;;
43124;SDS011;49182;50.788;7.318;2023-03-01T06:07:42;19.25;;;9.05;;
43124;SDS011;49182;50.788;7.318;2023-03-01T06:10:11;19.52;;;8.50;;
43124;SDS011;49182;50.788;7.318;2023-03-01T06:12:38;20.60;;;8.50;;
43124;SDS011;49182;50.788;7.318;2023-03-01T06:15:07;17.38;;;8.73;;
43124;SDS011;49182;50.788;7.318;2023-03-01T06:17:36;20.30;;;9.25;;
43124;SDS011;49182;50.788;7.318;2023-03-01T06:20:04;24.33;;;9.07;;
43124;SDS011;49182;50.788;7.318;2023-03-01T06:22:32;17.77;;;8.38;;
43124;SDS011;49182;50.788;7.318;2023-03-01T06:25:00;20.10;;;8.77;;
43124;SDS011;49182;50.788;7.318;2023-03-01T06:27:29;23.30;;;9.80;;
43124;SDS011;49182;50.788;7.318;2023-03-01T06:29:55;24.67;;;8.88;;
43124;SDS011;49182;50.788;7.318;2023-03-01T06:32:22;19.08;;;8.52;;
43124;SDS011;49182;50.788;7.318;2023-03-01T06:34:49;21.38;;;9.13;;
43124;SDS011;49182;50.788;7.318;2023-03-01T06:37:16;18.27;;;8.27;;
43124;SDS011;49182;50.788;7.318;2023-03-01T06:39:42;22.10;;;9.77;;
43124;SDS011;49182;50.788;7.318;2023-03-01T06:42:09;19.52;;;9.13;;
43124;SDS011;49182;50.788;7.318;2023-03-01T06:44:37;18.45;;;8.15;;
43124;SDS011;49182;50.788;7.318;2023-03-01T06:47:04;19.27;;;8.82;;
43124;SDS011;49182;50.788;7.318;2023-03-01T06:49:31;19.70;;;8.60;;
43124;SDS011;49182;50.788;7.318;2023-03-01T06:51:58;25.45;;;9.30;;
43124;SDS011;49182;50.788;7.318;2023-03-01T06:54:24;20.35;;;8.40;;
43124;SDS011;49182;50.788;7.318;2023-03-01T06:56:51;18.77;;;8.18;;
43124;SDS011;49182;50.788;7.318;2023-03-01T06:59:18;29.00;;;11.20;;
43124;SDS011;49182;50.788;7.318;2023-03-01T07:01:46;25.77;;;10.38;;
43124;SDS011;49182;50.788;7.318;2023-03-01T07:04:13;19.27;;;9.88;;
43124;SDS011;49182;50.788;7.318;2023-03-01T07:06:40;20.20;;;9.25;;
43124;SDS011;49182;50.788;7.318;2023-03-01T07:09:08;20.60;;;9.27;;
43124;SDS011;49182;50.788;7.318;2023-03-01T07:11:34;19.98;;;9.30;;
43124;SDS011;49182;50.788;7.318;2023-03-01T07:14:02;18.83;;;8.60;;
43124;SDS011;49182;50.788;7.318;2023-03-01T07:16:28;23.25;;;9.65;;
43124;SDS011;49182;50.788;7.318;2023-03-01T07:18:56;19.80;;;9.45;;
43124;SDS011;49182;50.788;7.318;2023-03-01T07:21:25;25.75;;;9.55;;
43124;SDS011;49182;50.788;7.318;2023-03-01T07:23:51;24.85;;;9.95;;
43124;SDS011;49182;50.788;7.318;2023-03-01T07:26:18;19.77;;;9.02;;
43124;SDS011;49182;50.788;7.318;2023-03-01T07:28:44;22.05;;;8.10;;
43124;SDS011;49182;50.788;7.318;2023-03-01T07:31:11;21.02;;;9.20;;
43124;SDS011;49182;50.788;7.318;2023-03-01T07:33:40;24.17;;;10.25;;
43124;SDS011;49182;50.788;7.318;2023-03-01T07:36:08;17.70;;;8.77;;
43124;SDS011;49182;50.788;7.318;2023-03-01T07:38:35;22.40;;;9.25;;
43124;SDS011;49182;50.788;7.318;2023-03-01T07:41:02;21.20;;;10.40;;
43124;SDS011;49182;50.788;7.318;2023-03-01T07:43:29;28.13;;;12.10;;
43124;SDS011;49182;50.788;7.318;2023-03-01T07:45:57;27.45;;;12.88;;
43124;SDS011;49182;50.788;7.318;2023-03-01T07:48:24;27.63;;;12.45;;
43124;SDS011;49182;50.788;7.318;2023-03-01T07:50:51;23.45;;;11.13;;
43124;SDS011;49182;50.788;7.318;2023-03-01T07:53:20;24.65;;;11.65;;
43124;SDS011;49182;50.788;7.318;2023-03-01T07:55:49;27.35;;;12.32;;
43124;SDS011;49182;50.788;7.318;2023-03-01T07:58:18;22.02;;;9.45;;
43124;SDS011;49182;50.788;7.318;2023-03-01T08:00:46;21.15;;;10.32;;
43124;SDS011;49182;50.788;7.318;2023-03-01T08:03:13;20.88;;;10.25;;
43124;SDS011;49182;50.788;7.318;2023-03-01T08:05:41;26.65;;;11.60;;
43124;SDS011;49182;50.788;7.318;2023-03-01T08:08:09;26.25;;;12.18;;
43124;SDS011;49182;50.788;7.318;2023-03-01T08:10:40;23.25;;;10.15;;
43124;SDS011;49182;50.788;7.318;2023-03-01T08:13:09;26.48;;;11.27;;
43124;SDS011;49182;50.788;7.318;2023-03-01T08:15:36;27.85;;;10.77;;
43124;SDS011;49182;50.788;7.318;2023-03-01T08:18:05;25.10;;;11.02;;
43124;SDS011;49182;50.788;7.318;2023-03-01T08:20:34;24.52;;;11.07;;
43124;SDS011;49182;50.788;7.318;2023-03-01T08:23:01;24.48;;;11.52;;
43124;SDS011;49182;50.788;7.318;2023-03-01T08:25:28;23.35;;;10.48;;
43124;SDS011;49182;50.788;7.318;2023-03-01T08:27:56;25.52;;;11.30;;
43124;SDS011;49182;50.788;7.318;2023-03-01T08:30:25;21.55;;;9.65;;
43124;SDS011;49182;50.788;7.318;2023-03-01T08:32:55;22.88;;;10.25;;
43124;SDS011;49182;50.788;7.318;2023-03-01T08:35:23;28.42;;;10.63;;
43124;SDS011;49182;50.788;7.318;2023-03-01T08:37:51;37.15;;;13.70;;
43124;SDS011;49182;50.788;7.318;2023-03-01T08:40:22;23.20;;;11.50;;
43124;SDS011;49182;50.788;7.318;2023-03-01T08:42:52;22.83;;;10.77;;
43124;SDS011;49182;50.788;7.318;2023-03-01T08:45:21;22.08;;;10.95;;
43124;SDS011;49182;50.788;7.318;2023-03-01T08:47:51;22.00;;;10.50;;
43124;SDS011;49182;50.788;7.318;2023-03-01T08:50:19;21.23;;;11.00;;
43124;SDS011;49182;50.788;7.318;2023-03-01T08:52:45;23.80;;;11.05;;
43124;SDS011;49182;50.788;7.318;2023-03-01T08:55:12;22.88;;;11.05;;
43124;SDS011;49182;50.788;7.318;2023-03-01T08:57:38;31.65;;;11.63;;
43124;SDS011;49182;50.788;7.318;2023-03-01T09:00:05;25.88;;;11.02;;
43124;SDS011;49182;50.788;7.318;2023-03-01T09:02:34;25.98;;;11.88;;
43124;SDS011;49182;50.788;7.318;2023-03-01T09:05:01;24.42;;;11.63;;
43124;SDS011;49182;50.788;7.318;2023-03-01T09:07:28;24.48;;;12.18;;
43124;SDS011;49182;50.788;7.318;2023-03-01T09:09:54;35.38;;;16.27;;
43124;SDS011;49182;50.788;7.318;2023-03-01T09:12:21;25.30;;;11.85;;
43124;SDS011;49182;50.788;7.318;2023-03-01T09:14:48;22.77;;;11.13;;
43124;SDS011;49182;50.788;7.318;2023-03-01T09:17:15;20.95;;;10.25;;
43124;SDS011;49182;50.788;7.318;2023-03-01T09:19:42;22.77;;;10.18;;
43124;SDS011;49182;50.788;7.318;2023-03-01T09:22:09;23.58;;;10.77;;
43124;SDS011;49182;50.788;7.318;2023-03-01T09:24:36;23.75;;;10.13;;
43124;SDS011;49182;50.788;7.318;2023-03-01T09:27:02;23.95;;;10.02;;
43124;SDS011;49182;50.788;7.318;2023-03-01T09:29:29;19.30;;;10.20;;
43124;SDS011;49182;50.788;7.318;2023-03-01T09:31:56;22.33;;;10.75;;
43124;SDS011;49182;50.788;7.318;2023-03-01T09:34:22;19.67;;;10.43;;
43124;SDS011;49182;50.788;7.318;2023-03-01T09:36:51;19.92;;;9.10;;
43124;SDS011;49182;50.788;7.318;2023-03-01T09:39:17;17.55;;;8.38;;
43124;SDS011;49182;50.788;7.318;2023-03-01T09:41:46;16.88;;;7.95;;
43124;SDS011;49182;50.788;7.318;2023-03-01T09:44:20;15.82;;;7.90;;
43124;SDS011;49182;50.788;7.318;2023-03-01T09:46:52;20.10;;;8.25;;
43124;SDS011;49182;50.788;7.318;2023-03-01T09:49:19;18.40;;;8.38;;
43124;SDS011;49182;50.788;7.318;2023-03-01T09:51:55;17.13;;;8.13;;
43124;SDS011;49182;50.788;7.318;2023-03-01T09:54:25;20.13;;;8.30;;
43124;SDS011;49182;50.788;7.318;2023-03-01T09:59:47;16.38;;;8.02;;
43124;SDS011;49182;50.788;7.318;2023-03-01T10:02:23;15.75;;;8.38;;
43124;SDS011;49182;50.788;7.318;2023-03-01T10:04:57;21.58;;;9.57;;
43124;SDS011;49182;50.788;7.318;2023-03-01T10:07:36;17.48;;;8.15;;
43124;SDS011;49182;50.788;7.318;2023-03-01T10:10:14;21.35;;;11.27;;
43124;SDS011;49182;50.788;7.318;2023-03-01T10:12:47;16.83;;;7.47;;
43124;SDS011;49182;50.788;7.318;2023-03-01T10:15:15;22.90;;;12.05;;
43124;SDS011;49182;50.788;7.318;2023-03-01T10:17:46;13.90;;;6.70;;
43124;SDS011;49182;50.788;7.318;2023-03-01T10:20:17;16.02;;;8.25;;
43124;SDS011;49182;50.788;7.318;2023-03-01T10:22:48;13.82;;;7.15;;
43124;SDS011;49182;50.788;7.318;2023-03-01T10:25:17;17.83;;;9.02;;
43124;SDS011;49182;50.788;7.318;2023-03-01T10:27:53;16.88;;;8.80;;
43124;SDS011;49182;50.788;7.318;2023-03-01T10:30:31;19.08;;;8.95;;
43124;SDS011;49182;50.788;7.318;2023-03-01T10:33:02;16.45;;;7.18;;
43124;SDS011;49182;50.788;7.318;2023-03-01T10:35:33;16.52;;;7.03;;
43124;SDS011;49182;50.788;7.318;2023-03-01T10:38:04;15.52;;;8.10;;
43124;SDS011;49182;50.788;7.318;2023-03-01T10:40:32;14.35;;;7.53;;
43124;SDS011;49182;50.788;7.318;2023-03-01T10:43:01;16.02;;;8.85;;
43124;SDS011;49182;50.788;7.318;2023-03-01T10:45:30;15.48;;;7.20;;
43124;SDS011;49182;50.788;7.318;2023-03-01T10:48:08;15.70;;;7.88;;
43124;SDS011;49182;50.788;7.318;2023-03-01T10:50:39;15.98;;;8.25;;
43124;SDS011;49182;50.788;7.318;2023-03-01T10:53:19;15.68;;;7.35;;
43124;SDS011;49182;50.788;7.318;2023-03-01T10:55:56;21.10;;;8.55;;
43124;SDS011;49182;50.788;7.318;2023-03-01T10:58:24;15.02;;;7.63;;
43124;SDS011;49182;50.788;7.318;2023-03-01T11:00:52;17.52;;;9.07;;
43124;SDS011;49182;50.788;7.318;2023-03-01T11:03:24;14.80;;;7.15;;
43124;SDS011;49182;50.788;7.318;2023-03-01T11:05:55;12.10;;;6.63;;
43124;SDS011;49182;50.788;7.318;2023-03-01T11:08:32;16.00;;;6.82;;
43124;SDS011;49182;50.788;7.318;2023-03-01T11:11:04;14.02;;;7.05;;
43124;SDS011;49182;50.788;7.318;2023-03-01T11:13:33;16.45;;;8.23;;
43124;SDS011;49182;50.788;7.318;2023-03-01T11:16:03;16.65;;;8.65;;
43124;SDS011;49182;50.788;7.318;2023-03-01T11:18:33;14.70;;;7.65;;
43124;SDS011;49182;50.788;7.318;2023-03-01T11:21:12;15.00;;;7.57;;
43124;SDS011;49182;50.788;7.318;2023-03-01T11:23:40;20.63;;;12.63;;
43124;SDS011;49182;50.788;7.318;2023-03-01T11:26:10;11.98;;;6.53;;
43124;SDS011;49182;50.788;7.318;2023-03-01T11:28:39;13.88;;;7.47;;
43124;SDS011;49182;50.788;7.318;2023-03-01T11:31:09;14.65;;;6.47;;
43124;SDS011;49182;50.788;7.318;2023-03-01T11:33:39;12.02;;;6.18;;
43124;SDS011;49182;50.788;7.318;2023-03-01T11:36:13;15.27;;;7.13;;
43124;SDS011;49182;50.788;7.318;2023-03-01T11:38:48;12.70;;;6.68;;
43124;SDS011;49182;50.788;7.318;2023-03-01T11:41:16;17.05;;;6.60;;
43124;SDS011;49182;50.788;7.318;2023-03-01T11:43:47;9.57;;;5.28;;
43124;SDS011;49182;50.788;7.318;2023-03-01T11:46:30;11.30;;;5.95;;
43124;SDS011;49182;50.788;7.318;2023-03-01T11:49:08;11.98;;;5.68;;
43124;SDS011;49182;50.788;7.318;2023-03-01T11:51:47;11.63;;;5.63;;
43124;SDS011;49182;50.788;7.318;2023-03-01T11:54:29;12.60;;;6.07;;
43124;SDS011;49182;50.788;7.318;2023-03-01T11:57:19;12.35;;;5.68;;
43124;SDS011;49182;50.788;7.318;2023-03-01T12:00:17;12.85;;;6.07;;
43124;SDS011;49182;50.788;7.318;2023-03-01T12:08:59;9.93;;;5.70;;
43124;SDS011;49182;50.788;7.318;2023-03-01T12:11:37;10.00;;;4.85;;
43124;SDS011;49182;50.788;7.318;2023-03-01T12:14:17;9.82;;;5.47;;
43124;SDS011;49182;50.788;7.318;2023-03-01T12:17:02;10.05;;;4.97;;
43124;SDS011;49182;50.788;7.318;2023-03-01T12:19:44;9.82;;;4.70;;
43124;SDS011;49182;50.788;7.318;2023-03-01T12:22:31;9.13;;;5.20;;
43124;SDS011;49182;50.788;7.318;2023-03-01T12:25:13;10.07;;;5.25;;
43124;SDS011;49182;50.788;7.318;2023-03-01T12:27:53;9.25;;;5.35;;
43124;SDS011;49182;50.788;7.318;2023-03-01T12:30:51;11.48;;;5.70;;
43124;SDS011;49182;50.788;7.318;2023-03-01T12:33:34;9.85;;;5.15;;
43124;SDS011;49182;50.788;7.318;2023-03-01T12:36:14;9.13;;;5.05;;
43124;SDS011;49182;50.788;7.318;2023-03-01T12:38:57;10.60;;;4.80;;
43124;SDS011;49182;50.788;7.318;2023-03-01T12:41:36;8.95;;;4.70;;
43124;SDS011;49182;50.788;7.318;2023-03-01T12:44:20;9.50;;;4.90;;
43124;SDS011;49182;50.788;7.318;2023-03-01T12:47:02;8.85;;;4.32;;
43124;SDS011;49182;50.788;7.318;2023-03-01T12:49:37;8.20;;;4.45;;
43124;SDS011;49182;50.788;7.318;2023-03-01T12:52:11;9.85;;;5.00;;
43124;SDS011;49182;50.788;7.318;2023-03-01T12:54:43;8.52;;;4.05;;
43124;SDS011;49182;50.788;7.318;2023-03-01T12:57:12;8.93;;;3.92;;
43124;SDS011;49182;50.788;7.318;2023-03-01T12:59:48;8.45;;;4.18;;
43124;SDS011;49182;50.788;7.318;2023-03-01T13:02:26;9.77;;;4.25;;
43124;SDS011;49182;50.788;7.318;2023-03-01T13:05:00;8.55;;;4.32;;
43124;SDS011;49182;50.788;7.318;2023-03-01T13:07:37;7.30;;;3.78;;
43124;SDS011;49182;50.788;7.318;2023-03-01T13:10:11;9.38;;;4.55;;
43124;SDS011;49182;50.788;7.318;2023-03-01T13:12:47;8.00;;;4.65;;
43124;SDS011;49182;50.788;7.318;2023-03-01T13:15:26;11.00;;;4.60;;
43124;SDS011;49182;50.788;7.318;2023-03-01T13:17:57;11.90;;;5.28;;
43124;SDS011;49182;50.788;7.318;2023-03-01T13:20:27;10.45;;;5.55;;
43124;SDS011;49182;50.788;7.318;2023-03-01T13:23:01;10.15;;;4.65;;
43124;SDS011;49182;50.788;7.318;2023-03-01T13:25:31;12.20;;;4.78;;
43124;SDS011;49182;50.788;7.318;2023-03-01T13:31:06;9.40;;;5.70;;
43124;SDS011;49182;50.788;7.318;2023-03-01T13:33:39;10.55;;;5.57;;
43124;SDS011;49182;50.788;7.318;2023-03-01T13:39:27;8.98;;;5.03;;
43124;SDS011;49182;50.788;7.318;2023-03-01T13:41:56;10.05;;;5.15;;
43124;SDS011;49182;50.788;7.318;2023-03-01T13:44:24;10.60;;;4.97;;
43124;SDS011;49182;50.788;7.318;2023-03-01T13:49:26;8.18;;;4.05;;
43124;SDS011;49182;50.788;7.318;2023-03-01T13:52:22;10.05;;;5.30;;
43124;SDS011;49182;50.788;7.318;2023-03-01T13:55:05;9.27;;;4.70;;
43124;SDS011;49182;50.788;7.318;2023-03-01T13:57:44;7.93;;;4.30;;
43124;SDS011;49182;50.788;7.318;2023-03-01T14:00:24;8.05;;;4.25;;
43124;SDS011;49182;50.788;7.318;2023-03-01T14:03:02;9.73;;;5.03;;
43124;SDS011;49182;50.788;7.318;2023-03-01T14:05:31;8.20;;;4.13;;
43124;SDS011;49182;50.788;7.318;2023-03-01T14:07:59;8.70;;;4.07;;
43124;SDS011;49182;50.788;7.318;2023-03-01T14:10:26;8.88;;;3.85;;
43124;SDS011;49182;50.788;7.318;2023-03-01T14:13:03;8.02;;;3.90;;
43124;SDS011;49182;50.788;7.318;2023-03-01T14:15:45;7.60;;;3.65;;
43124;SDS011;49182;50.788;7.318;2023-03-01T14:18:22;7.57;;;3.33;;
43124;SDS011;49182;50.788;7.318;2023-03-01T14:20:58;6.60;;;3.40;;
43124;SDS011;49182;50.788;7.318;2023-03-01T14:23:25;7.78;;;4.13;;
43124;SDS011;49182;50.788;7.318;2023-03-01T14:25:53;7.63;;;3.40;;
43124;SDS011;49182;50.788;7.318;2023-03-01T14:28:23;7.25;;;3.67;;
43124;SDS011;49182;50.788;7.318;2023-03-01T14:30:51;7.32;;;3.72;;
43124;SDS011;49182;50.788;7.318;2023-03-01T14:33:21;8.20;;;4.13;;
43124;SDS011;49182;50.788;7.318;2023-03-01T14:38:20;6.70;;;3.55;;
43124;SDS011;49182;50.788;7.318;2023-03-01T14:40:47;7.95;;;4.30;;
43124;SDS011;49182;50.788;7.318;2023-03-01T14:43:18;6.88;;;3.50;;
43124;SDS011;49182;50.788;7.318;2023-03-01T14:45:49;9.00;;;4.10;;
43124;SDS011;49182;50.788;7.318;2023-03-01T14:48:16;9.35;;;4.72;;
43124;SDS011;49182;50.788;7.318;2023-03-01T14:50:46;8.43;;;4.03;;
43124;SDS011;49182;50.788;7.318;2023-03-01T14:53:15;9.10;;;4.07;;
43124;SDS011;49182;50.788;7.318;2023-03-01T14:55:45;8.77;;;4.55;;
43124;SDS011;49182;50.788;7.318;2023-03-01T14:58:15;9.60;;;4.00;;
43124;SDS011;49182;50.788;7.318;2023-03-01T15:00:46;8.52;;;4.65;;
43124;SDS011;49182;50.788;7.318;2023-03-01T15:03:18;9.10;;;3.88;;
43124;SDS011;49182;50.788;7.318;2023-03-01T15:05:52;8.05;;;3.85;;
43124;SDS011;49182;50.788;7.318;2023-03-01T15:08:20;6.45;;;3.50;;